Portada
METAR-TAF:

METAR-TAF

Aeroports :

Olney-Noble Airport

Olney-Noble, Illinois, Estats Units d'Amèrica

latitud: 38-43-19N, longitud: 088-10-35W, altitud: 147 m

Observació

L'informe es va fer fa 26 minuts, a les 15:15 UTC
Vent 7 kt del Est/Sud-Est
Temperatura 7°C
Humitat 87%
Pressió 1017 hPa
Visibilitat: 16.1 km
Cel ennuvolat a una alçada de 4200 ft
Cel cobert a una alçada de 5000 ft
pluja

METAR: KOLY 171515Z AUTO 12007KT 10SM -RA BKN042 OVC050 07/05 A3004 RMK AO2 T00650045

Hora: 09:41 (15:41 UTC)


TAF: manca

Observacions i pronòstics meteorològics de més de 4000 aeroports (METAR i TAF).

Les estacions disponibles són els punts grocs i vermells al mapa.

Posi el ratolí al punt desitjat per veure el nom de l'estació.

Feu clic per veure les observacions i els pronòstics meteorològics.

Per canviar el mapa: feu clic els botons verds amb una creu de color negre per apropar; al botó verd amb un guió per allunyar la imatge; o en les fletxes verdes per a mapes adjacents.


METAR-TAF: